Time;durP1;ratioP1;P1;durP2;ratioP2;P2;SDS_P1;SDS_P2;PMS_P1;PMS_P2;Temp;Humidity;BMP_temperature;BMP_pressure;BME280_temperature;BME280_humidity;BME280_pressure;Samples;Min_cycle;Max_cycle;Signal;HPM_P1;HPM_P2
2023/03/31 00:01:23;;;;;;;10.10;2.60;;;;;;;;;;5017357;28;20231;-69
2023/03/31 00:03:50;;;;;;;9.00;2.53;;;;;;;;;;5017581;28;20208;-69
2023/03/31 00:06:17;;;;;;;9.53;2.30;;;;;;;;;;5021523;28;20254;-69
2023/03/31 00:08:44;;;;;;;7.73;2.03;;;;;;;;;;5022757;28;20204;-69
2023/03/31 00:11:12;;;;;;;9.10;2.33;;;;;;;;;;5021761;28;20227;-69
2023/03/31 00:13:40;;;;;;;9.50;2.60;;;;;;;;;;5017321;28;20215;-69
2023/03/31 00:16:08;;;;;;;9.33;2.00;;;;;;;;;;5021531;28;20196;-69
2023/03/31 00:18:39;;;;;;;7.60;2.23;;;;;;;;;;5023084;28;20208;-69
2023/03/31 00:21:08;;;;;;;10.80;2.57;;;;;;;;;;5026371;28;20262;-70
2023/03/31 00:23:35;;;;;;;8.00;2.50;;;;;;;;;;5021120;28;20205;-69
2023/03/31 00:26:02;;;;;;;11.60;2.67;;;;;;;;;;5022770;28;20235;-68
2023/03/31 00:28:29;;;;;;;9.10;2.43;;;;;;;;;;5020340;28;20211;-69
2023/03/31 00:31:00;;;;;;;7.50;2.60;;;;;;;;;;5024273;28;20200;-69
2023/03/31 00:33:27;;;;;;;7.13;2.50;;;;;;;;;;5017292;28;20200;-69
2023/03/31 00:35:56;;;;;;;7.07;2.20;;;;;;;;;;5027852;28;20196;-69
2023/03/31 00:38:23;;;;;;;6.20;2.07;;;;;;;;;;5021481;28;20208;-69
2023/03/31 00:40:50;;;;;;;8.13;2.43;;;;;;;;;;5019106;28;20200;-69
2023/03/31 00:43:25;;;;;;;10.47;2.27;;;;;;;;;;5021296;28;20208;-69
2023/03/31 00:45:53;;;;;;;10.30;2.40;;;;;;;;;;5022995;28;20216;-69
2023/03/31 00:48:22;;;;;;;11.37;2.30;;;;;;;;;;5020354;28;20204;-69
2023/03/31 00:50:51;;;;;;;7.30;2.00;;;;;;;;;;5019056;28;20220;-69
2023/03/31 00:53:22;;;;;;;11.77;2.60;;;;;;;;;;5020720;28;20212;-69
2023/03/31 00:55:51;;;;;;;8.77;2.30;;;;;;;;;;5019439;28;20220;-69
2023/03/31 00:58:20;;;;;;;9.57;2.60;;;;;;;;;;5018437;28;20197;-69
2023/03/31 01:00:47;;;;;;;10.27;2.07;;;;;;;;;;5023001;28;20211;-69
2023/03/31 01:03:17;;;;;;;8.03;1.93;;;;;;;;;;5021611;28;20212;-69
2023/03/31 01:05:46;;;;;;;7.77;2.20;;;;;;;;;;5022569;28;20235;-69
2023/03/31 01:08:14;;;;;;;7.67;2.30;;;;;;;;;;5025531;28;20212;-68
2023/03/31 01:10:45;;;;;;;11.80;2.40;;;;;;;;;;5020549;28;20293;-69
2023/03/31 01:13:13;;;;;;;7.30;2.10;;;;;;;;;;5020739;28;20348;-69
2023/03/31 01:15:41;;;;;;;10.70;2.40;;;;;;;;;;5021637;28;20212;-69
2023/03/31 01:18:09;;;;;;;8.90;2.30;;;;;;;;;;5019562;28;20197;-69
2023/03/31 01:20:40;;;;;;;8.43;2.20;;;;;;;;;;5020253;28;20207;-69
2023/03/31 01:23:26;;;;;;;9.50;2.33;;;;;;;;;;5020357;28;20205;-69
2023/03/31 01:26:08;;;;;;;8.13;2.33;;;;;;;;;;5017469;28;20242;-68
2023/03/31 01:28:40;;;;;;;6.67;1.87;;;;;;;;;;5020697;28;20204;-69
2023/03/31 01:31:25;;;;;;;9.20;2.33;;;;;;;;;;5023535;28;20199;-69
2023/03/31 01:34:23;;;;;;;7.60;2.10;;;;;;;;;;5024385;28;20205;-69
2023/03/31 01:37:08;;;;;;;9.63;2.20;;;;;;;;;;5021628;28;20207;-69
2023/03/31 01:39:55;;;;;;;7.73;2.20;;;;;;;;;;5001565;28;20197;-69
2023/03/31 01:42:26;;;;;;;8.67;1.93;;;;;;;;;;5023628;28;20196;-69
2023/03/31 01:44:58;;;;;;;8.63;2.10;;;;;;;;;;5011838;28;20204;-69
2023/03/31 01:47:27;;;;;;;9.07;2.10;;;;;;;;;;5019894;28;20224;-69
2023/03/31 01:49:57;;;;;;;11.80;2.07;;;;;;;;;;5020774;28;20211;-69
2023/03/31 01:52:26;;;;;;;9.40;2.00;;;;;;;;;;5023367;28;20212;-69
2023/03/31 01:54:59;;;;;;;6.13;1.97;;;;;;;;;;5023796;28;20208;-68
2023/03/31 01:57:30;;;;;;;10.67;2.27;;;;;;;;;;5024662;28;20208;-68
2023/03/31 01:59:59;;;;;;;7.97;2.10;;;;;;;;;;5019931;28;20196;-68
2023/03/31 02:02:28;;;;;;;7.67;2.20;;;;;;;;;;5021267;28;20200;-68
2023/03/31 02:04:57;;;;;;;7.93;2.30;;;;;;;;;;5028298;28;20207;-69
2023/03/31 02:07:28;;;;;;;8.87;2.20;;;;;;;;;;5028421;28;20231;-69
2023/03/31 02:09:58;;;;;;;9.33;2.37;;;;;;;;;;5023711;28;20239;-69
2023/03/31 02:12:26;;;;;;;7.60;2.33;;;;;;;;;;5024152;28;20208;-69
2023/03/31 02:14:54;;;;;;;8.07;2.07;;;;;;;;;;5021417;28;20211;-69
2023/03/31 02:17:29;;;;;;;7.67;1.67;;;;;;;;;;5018316;28;20227;-69
2023/03/31 02:19:57;;;;;;;7.07;2.00;;;;;;;;;;5019252;28;20214;-69
2023/03/31 02:22:25;;;;;;;7.00;2.20;;;;;;;;;;5026014;28;20216;-69
2023/03/31 02:24:53;;;;;;;7.37;2.27;;;;;;;;;;5023882;28;20212;-69
2023/03/31 02:27:23;;;;;;;5.13;1.80;;;;;;;;;;5022219;28;20240;-69
2023/03/31 02:29:50;;;;;;;6.40;1.70;;;;;;;;;;5023125;28;20201;-69
2023/03/31 02:32:21;;;;;;;6.07;2.00;;;;;;;;;;5024890;28;20211;-69
2023/03/31 02:34:48;;;;;;;8.13;2.13;;;;;;;;;;5022409;28;20213;-69
2023/03/31 02:37:16;;;;;;;4.10;1.60;;;;;;;;;;5024579;28;20209;-69
2023/03/31 02:39:45;;;;;;;6.97;1.60;;;;;;;;;;5025502;28;20223;-69
2023/03/31 02:42:12;;;;;;;6.10;1.70;;;;;;;;;;5019870;28;20204;-69
2023/03/31 02:44:40;;;;;;;4.50;1.50;;;;;;;;;;5020727;28;20209;-69
2023/03/31 02:47:09;;;;;;;4.57;1.33;;;;;;;;;;5023108;28;20231;-69
2023/03/31 02:49:37;;;;;;;8.00;1.90;;;;;;;;;;5020690;28;20239;-69
2023/03/31 02:52:15;;;;;;;7.87;1.83;;;;;;;;;;5016302;28;20205;-69
2023/03/31 02:55:00;;;;;;;8.67;1.80;;;;;;;;;;5019564;28;20215;-69
2023/03/31 02:57:38;;;;;;;3.33;1.23;;;;;;;;;;5007773;28;20211;-69
2023/03/31 03:00:09;;;;;;;8.40;1.60;;;;;;;;;;5019884;28;20271;-69
2023/03/31 03:02:44;;;;;;;5.30;1.53;;;;;;;;;;5020917;28;20204;-69
2023/03/31 03:05:19;;;;;;;7.93;2.00;;;;;;;;;;5018721;28;20207;-69
2023/03/31 03:07:49;;;;;;;8.43;1.77;;;;;;;;;;5023297;28;20223;-69
2023/03/31 03:10:19;;;;;;;5.50;1.60;;;;;;;;;;5023168;28;20196;-69
2023/03/31 03:12:49;;;;;;;5.30;1.70;;;;;;;;;;5026397;28;20231;-69
2023/03/31 03:15:22;;;;;;;6.17;1.70;;;;;;;;;;5020848;28;20204;-69
2023/03/31 03:17:49;;;;;;;5.53;1.70;;;;;;;;;;5020726;28;20202;-69
2023/03/31 03:20:19;;;;;;;6.73;2.10;;;;;;;;;;5020271;28;20205;-69
2023/03/31 03:22:46;;;;;;;6.23;1.90;;;;;;;;;;5018712;28;20246;-69
2023/03/31 03:25:15;;;;;;;3.97;1.50;;;;;;;;;;5020985;28;20212;-69
2023/03/31 03:27:43;;;;;;;4.57;1.70;;;;;;;;;;5020340;28;20232;-69
2023/03/31 03:30:11;;;;;;;7.27;2.30;;;;;;;;;;5023126;28;20207;-69
2023/03/31 03:32:40;;;;;;;6.30;1.80;;;;;;;;;;5020508;28;20205;-69
2023/03/31 03:35:07;;;;;;;8.03;2.00;;;;;;;;;;5018987;28;20251;-69
2023/03/31 03:37:34;;;;;;;6.40;1.80;;;;;;;;;;5027621;28;20209;-69
2023/03/31 03:40:02;;;;;;;6.53;1.90;;;;;;;;;;5020317;28;20212;-69
2023/03/31 03:42:29;;;;;;;5.23;1.97;;;;;;;;;;5024125;28;20286;-68
2023/03/31 03:44:57;;;;;;;7.53;1.73;;;;;;;;;;5025274;28;20204;-69
2023/03/31 03:47:24;;;;;;;5.37;1.73;;;;;;;;;;5021616;28;20235;-69
2023/03/31 03:49:52;;;;;;;6.97;2.20;;;;;;;;;;5024478;28;20251;-69
2023/03/31 03:52:20;;;;;;;6.10;1.90;;;;;;;;;;5024305;28;20247;-69
2023/03/31 03:54:47;;;;;;;6.47;1.97;;;;;;;;;;5022212;28;20203;-69
2023/03/31 03:57:14;;;;;;;5.00;1.70;;;;;;;;;;5023248;28;20266;-69
2023/03/31 03:59:41;;;;;;;6.17;2.10;;;;;;;;;;5024134;28;20304;-69
2023/03/31 04:02:08;;;;;;;8.47;1.80;;;;;;;;;;5022799;28;20204;-69
2023/03/31 04:04:35;;;;;;;5.17;1.93;;;;;;;;;;5020516;28;20208;-69
2023/03/31 04:07:04;;;;;;;5.30;1.60;;;;;;;;;;5019522;28;20225;-70
2023/03/31 04:09:31;;;;;;;5.73;1.60;;;;;;;;;;5022888;28;20279;-70
2023/03/31 04:11:58;;;;;;;5.33;1.60;;;;;;;;;;5020930;28;20204;-70
2023/03/31 04:14:25;;;;;;;4.50;1.83;;;;;;;;;;5020293;28;20300;-70
2023/03/31 04:16:55;;;;;;;5.83;1.73;;;;;;;;;;5020646;28;20201;-69
2023/03/31 04:19:24;;;;;;;5.77;1.60;;;;;;;;;;5020405;28;20288;-70
2023/03/31 04:21:57;;;;;;;6.20;1.70;;;;;;;;;;5026209;28;20300;-70
2023/03/31 04:24:31;;;;;;;4.10;1.40;;;;;;;;;;5025382;28;20212;-70
2023/03/31 04:26:59;;;;;;;4.83;1.70;;;;;;;;;;5027165;28;20243;-68
2023/03/31 04:29:26;;;;;;;7.20;1.77;;;;;;;;;;5015603;28;20208;-69
2023/03/31 04:31:57;;;;;;;5.87;1.60;;;;;;;;;;5018258;28;20220;-70
2023/03/31 04:34:25;;;;;;;6.97;2.10;;;;;;;;;;5011538;28;20208;-70
2023/03/31 04:36:54;;;;;;;5.27;1.70;;;;;;;;;;5020605;28;20207;-70
2023/03/31 04:39:25;;;;;;;4.87;1.80;;;;;;;;;;5023900;28;20200;-70
2023/03/31 04:41:54;;;;;;;5.60;1.97;;;;;;;;;;5022485;28;20300;-70
2023/03/31 04:44:21;;;;;;;6.50;2.00;;;;;;;;;;5020665;28;20211;-69
2023/03/31 04:46:48;;;;;;;18.53;2.20;;;;;;;;;;5010264;28;20213;-69
2023/03/31 04:49:15;;;;;;;7.23;1.80;;;;;;;;;;5020200;28;20212;-70
2023/03/31 04:51:43;;;;;;;5.27;2.13;;;;;;;;;;5021902;28;20204;-70
2023/03/31 04:54:10;;;;;;;7.87;2.33;;;;;;;;;;5020159;28;20272;-70
2023/03/31 04:56:38;;;;;;;8.23;2.57;;;;;;;;;;5019872;28;20211;-70
2023/03/31 04:59:07;;;;;;;7.03;2.50;;;;;;;;;;5021546;28;20208;-70
2023/03/31 05:01:35;;;;;;;6.87;2.20;;;;;;;;;;5018462;28;20212;-69
2023/03/31 05:04:02;;;;;;;6.00;1.97;;;;;;;;;;5021577;28;20212;-69
2023/03/31 05:06:30;;;;;;;7.77;2.37;;;;;;;;;;5019349;28;20219;-69
2023/03/31 05:08:57;;;;;;;6.10;2.20;;;;;;;;;;5021443;28;20243;-69
2023/03/31 05:11:24;;;;;;;10.67;2.63;;;;;;;;;;5022029;28;20295;-69
2023/03/31 05:13:51;;;;;;;7.97;2.67;;;;;;;;;;5022613;28;20204;-69
2023/03/31 05:16:20;;;;;;;5.60;1.80;;;;;;;;;;5025598;28;20212;-69
2023/03/31 05:18:47;;;;;;;5.47;1.83;;;;;;;;;;5020427;28;20242;-69
2023/03/31 05:21:15;;;;;;;4.37;1.53;;;;;;;;;;5019931;28;20212;-69
2023/03/31 05:23:42;;;;;;;1.43;1.07;;;;;;;;;;5027282;28;20208;-69
2023/03/31 05:26:10;;;;;;;1.20;0.87;;;;;;;;;;5024064;28;20200;-68
2023/03/31 05:28:38;;;;;;;1.03;0.90;;;;;;;;;;5023343;28;20224;-69
2023/03/31 05:31:06;;;;;;;1.40;0.80;;;;;;;;;;5023043;28;20200;-69
2023/03/31 05:33:38;;;;;;;1.60;0.77;;;;;;;;;;5022338;28;20196;-69
2023/03/31 05:36:06;;;;;;;12.83;11.23;;;;;;;;;;5021338;28;20204;-68
2023/03/31 05:38:33;;;;;;;11.57;9.03;;;;;;;;;;5022270;28;20212;-69
2023/03/31 05:41:00;;;;;;;8.77;7.57;;;;;;;;;;5021420;28;20200;-68
2023/03/31 05:43:27;;;;;;;4.30;3.30;;;;;;;;;;5025507;28;20335;-69
2023/03/31 05:45:55;;;;;;;1.70;1.60;;;;;;;;;;5028029;28;20197;-69
2023/03/31 05:48:22;;;;;;;1.30;1.13;;;;;;;;;;5021874;28;20232;-69
2023/03/31 05:50:50;;;;;;;0.83;0.83;;;;;;;;;;5020872;28;20205;-69
2023/03/31 05:53:17;;;;;;;1.60;0.83;;;;;;;;;;5029245;28;20212;-69
2023/03/31 05:55:44;;;;;;;1.77;0.83;;;;;;;;;;5017570;28;20207;-69
2023/03/31 05:58:11;;;;;;;0.70;0.70;;;;;;;;;;5025827;28;20204;-69
2023/03/31 06:00:38;;;;;;;0.60;0.60;;;;;;;;;;5025157;28;20208;-69
2023/03/31 06:03:06;;;;;;;0.83;0.77;;;;;;;;;;5022019;28;20212;-69
2023/03/31 06:05:33;;;;;;;1.50;0.90;;;;;;;;;;5026168;28;20295;-69
2023/03/31 06:08:02;;;;;;;1.67;0.90;;;;;;;;;;5026249;28;20232;-69
2023/03/31 06:10:30;;;;;;;2.07;1.00;;;;;;;;;;5026208;28;20212;-69
2023/03/31 06:12:57;;;;;;;2.60;1.03;;;;;;;;;;5022081;28;20309;-69
2023/03/31 06:15:24;;;;;;;1.97;1.10;;;;;;;;;;5024373;28;20204;-69
2023/03/31 06:17:51;;;;;;;2.57;1.30;;;;;;;;;;5023610;28;20209;-69
2023/03/31 06:20:18;;;;;;;2.63;1.37;;;;;;;;;;5026394;28;20204;-69
2023/03/31 06:22:45;;;;;;;2.17;1.60;;;;;;;;;;5027711;28;20233;-69
2023/03/31 06:25:14;;;;;;;3.90;1.93;;;;;;;;;;5024184;28;20215;-69
2023/03/31 06:27:41;;;;;;;3.47;2.00;;;;;;;;;;5023893;28;20227;-69
2023/03/31 06:30:09;;;;;;;4.30;2.17;;;;;;;;;;5021348;28;20208;-69
2023/03/31 06:32:36;;;;;;;3.87;2.37;;;;;;;;;;5022809;28;20200;-69
2023/03/31 06:35:03;;;;;;;6.40;2.73;;;;;;;;;;5024600;28;20205;-69
2023/03/31 06:37:30;;;;;;;5.37;2.80;;;;;;;;;;5024458;28;20203;-69
2023/03/31 06:39:57;;;;;;;5.87;2.50;;;;;;;;;;5020059;28;20205;-69
2023/03/31 06:42:26;;;;;;;5.17;2.30;;;;;;;;;;5019934;28;20209;-69
2023/03/31 06:44:54;;;;;;;4.60;2.43;;;;;;;;;;5022256;28;20323;-69
2023/03/31 06:47:21;;;;;;;5.70;2.40;;;;;;;;;;5023437;28;20323;-69
2023/03/31 06:49:48;;;;;;;3.63;2.83;;;;;;;;;;5024850;28;20196;-69
2023/03/31 06:52:15;;;;;;;4.37;2.40;;;;;;;;;;5020855;28;20200;-69
2023/03/31 06:54:42;;;;;;;6.03;2.70;;;;;;;;;;5016160;28;20200;-69
2023/03/31 06:57:10;;;;;;;8.07;2.70;;;;;;;;;;5016893;28;20205;-69
2023/03/31 06:59:38;;;;;;;4.60;2.73;;;;;;;;;;5021047;28;20200;-69
2023/03/31 07:02:05;;;;;;;5.83;2.60;;;;;;;;;;5024147;28;20211;-68
2023/03/31 07:04:32;;;;;;;4.80;2.40;;;;;;;;;;5023128;28;20222;-68
2023/03/31 07:06:59;;;;;;;5.97;2.73;;;;;;;;;;5020699;28;20204;-68
2023/03/31 07:09:26;;;;;;;6.27;2.90;;;;;;;;;;5023150;28;20204;-69
2023/03/31 07:11:53;;;;;;;5.23;2.60;;;;;;;;;;5023797;28;20192;-69
2023/03/31 07:14:21;;;;;;;4.27;2.40;;;;;;;;;;5025244;28;20209;-68
2023/03/31 07:16:50;;;;;;;4.93;2.50;;;;;;;;;;5021505;28;20212;-69
2023/03/31 07:19:18;;;;;;;8.10;3.00;;;;;;;;;;5021964;28;20290;-68
2023/03/31 07:21:45;;;;;;;6.80;2.73;;;;;;;;;;5023052;28;20228;-68
2023/03/31 07:24:12;;;;;;;8.67;3.07;;;;;;;;;;5021492;28;20216;-68
2023/03/31 07:26:39;;;;;;;8.23;2.67;;;;;;;;;;5023472;28;20326;-68
2023/03/31 07:29:07;;;;;;;7.90;2.50;;;;;;;;;;5015903;28;20220;-68
2023/03/31 07:31:34;;;;;;;7.73;2.90;;;;;;;;;;5020322;28;20211;-68
2023/03/31 07:34:03;;;;;;;7.53;3.17;;;;;;;;;;5020540;28;20230;-68
2023/03/31 07:36:31;;;;;;;8.57;3.10;;;;;;;;;;5022001;28;20200;-68
2023/03/31 07:38:58;;;;;;;10.67;3.30;;;;;;;;;;5019912;28;20211;-68
2023/03/31 07:41:25;;;;;;;11.07;3.27;;;;;;;;;;5017992;28;20340;-68
2023/03/31 07:43:52;;;;;;;9.13;3.00;;;;;;;;;;5019847;28;20204;-69
2023/03/31 07:46:20;;;;;;;10.43;3.27;;;;;;;;;;5015352;28;20208;-69
2023/03/31 07:48:47;;;;;;;11.03;3.50;;;;;;;;;;5018069;28;20224;-69
2023/03/31 07:51:16;;;;;;;11.23;3.40;;;;;;;;;;5019426;28;20226;-68
2023/03/31 07:53:43;;;;;;;9.90;3.13;;;;;;;;;;5025091;28;20242;-69
2023/03/31 07:56:11;;;;;;;8.10;3.43;;;;;;;;;;5021543;28;20196;-68
2023/03/31 07:58:38;;;;;;;11.53;3.43;;;;;;;;;;5018906;28;20211;-69
2023/03/31 08:01:06;;;;;;;14.20;3.90;;;;;;;;;;5019332;28;20291;-69
2023/03/31 08:03:33;;;;;;;12.50;3.60;;;;;;;;;;5022194;28;20215;-69
2023/03/31 08:06:00;;;;;;;15.37;4.07;;;;;;;;;;5020591;28;20201;-69
2023/03/31 08:08:29;;;;;;;12.13;3.27;;;;;;;;;;5019166;28;20222;-68
2023/03/31 08:10:56;;;;;;;16.73;3.80;;;;;;;;;;5025246;28;20270;-68
2023/03/31 08:13:23;;;;;;;15.73;4.07;;;;;;;;;;5017780;28;20231;-68
2023/03/31 08:15:50;;;;;;;14.17;4.00;;;;;;;;;;5018907;28;20211;-68
2023/03/31 08:18:17;;;;;;;15.57;4.43;;;;;;;;;;5021803;28;20204;-68
2023/03/31 08:20:44;;;;;;;18.63;4.60;;;;;;;;;;5020198;28;20207;-68
2023/03/31 08:23:12;;;;;;;12.00;3.67;;;;;;;;;;5023632;28;20204;-68
2023/03/31 08:25:40;;;;;;;16.17;3.90;;;;;;;;;;5022893;28;20216;-68
2023/03/31 08:28:09;;;;;;;12.73;2.90;;;;;;;;;;5019590;28;20268;-69
2023/03/31 08:30:38;;;;;;;8.93;2.87;;;;;;;;;;5022675;28;20226;-68
2023/03/31 08:33:05;;;;;;;9.93;3.00;;;;;;;;;;5022111;28;20261;-69
2023/03/31 08:35:38;;;;;;;11.50;3.43;;;;;;;;;;5019554;28;20208;-69
2023/03/31 08:38:05;;;;;;;9.50;3.40;;;;;;;;;;5017549;28;20200;-69
2023/03/31 08:40:33;;;;;;;10.87;3.00;;;;;;;;;;5018627;28;20203;-68
2023/03/31 08:43:05;;;;;;;10.30;2.70;;;;;;;;;;5019666;28;20208;-68
2023/03/31 08:45:34;;;;;;;9.70;2.60;;;;;;;;;;5019948;28;20199;-68
2023/03/31 08:48:05;;;;;;;4.47;1.60;;;;;;;;;;5024566;28;20251;-71
2023/03/31 08:50:34;;;;;;;7.33;3.90;;;;;;;;;;5019044;28;20212;-69
2023/03/31 08:53:04;;;;;;;2.10;1.10;;;;;;;;;;5018823;28;20291;-68
2023/03/31 08:55:35;;;;;;;4.83;1.50;;;;;;;;;;5020291;28;20196;-69
2023/03/31 08:58:06;;;;;;;7.67;1.70;;;;;;;;;;5022582;28;20214;-69
2023/03/31 09:00:40;;;;;;;6.17;1.70;;;;;;;;;;5022487;28;20200;-69
2023/03/31 09:03:15;;;;;;;8.60;2.00;;;;;;;;;;5022144;28;20200;-69
2023/03/31 09:05:47;;;;;;;9.80;2.23;;;;;;;;;;5026602;28;20247;-68
2023/03/31 09:08:20;;;;;;;8.83;2.50;;;;;;;;;;5029092;28;20227;-68
2023/03/31 09:10:52;;;;;;;10.10;2.87;;;;;;;;;;5026056;28;20196;-68
2023/03/31 09:13:38;;;;;;;9.83;2.60;;;;;;;;;;5019434;28;20287;-69
2023/03/31 09:16:09;;;;;;;11.23;3.03;;;;;;;;;;5024880;28;20202;-68
2023/03/31 09:18:37;;;;;;;10.03;2.87;;;;;;;;;;5022316;28;20204;-68
2023/03/31 09:21:08;;;;;;;7.40;2.53;;;;;;;;;;5025270;28;20200;-68
2023/03/31 09:23:38;;;;;;;10.17;2.80;;;;;;;;;;5023265;28;20209;-68
2023/03/31 09:26:06;;;;;;;12.07;3.10;;;;;;;;;;5025535;28;20201;-67
2023/03/31 09:28:36;;;;;;;10.40;3.07;;;;;;;;;;5022275;28;20274;-68
2023/03/31 09:31:04;;;;;;;10.80;2.43;;;;;;;;;;5023885;28;20205;-68
2023/03/31 09:33:32;;;;;;;13.63;3.50;;;;;;;;;;5035878;28;20207;-68
2023/03/31 09:35:59;;;;;;;13.07;3.13;;;;;;;;;;5027200;28;20196;-68
2023/03/31 09:38:28;;;;;;;12.70;3.27;;;;;;;;;;5021750;28;20198;-69
2023/03/31 09:40:55;;;;;;;11.60;2.87;;;;;;;;;;5022897;28;20304;-68
2023/03/31 09:43:24;;;;;;;14.73;3.63;;;;;;;;;;5028333;28;20208;-68
2023/03/31 09:45:52;;;;;;;14.73;3.90;;;;;;;;;;5027361;28;20212;-68
2023/03/31 09:48:22;;;;;;;14.70;4.00;;;;;;;;;;5022777;28;20228;-71
2023/03/31 09:50:51;;;;;;;16.07;3.47;;;;;;;;;;5023831;28;20204;-68
2023/03/31 09:53:19;;;;;;;12.47;3.70;;;;;;;;;;5022566;28;20206;-68
2023/03/31 09:55:48;;;;;;;12.67;3.70;;;;;;;;;;5021318;28;20208;-68
2023/03/31 09:58:17;;;;;;;10.60;3.60;;;;;;;;;;5027333;28;20203;-68
2023/03/31 10:00:45;;;;;;;15.33;3.80;;;;;;;;;;5032319;28;20225;-68
2023/03/31 10:03:14;;;;;;;12.77;3.50;;;;;;;;;;5020950;28;20212;-68
2023/03/31 10:05:50;;;;;;;17.00;3.80;;;;;;;;;;5023326;28;20201;-68
2023/03/31 10:08:23;;;;;;;14.13;3.93;;;;;;;;;;5019099;28;20228;-68
2023/03/31 10:10:52;;;;;;;11.87;4.03;;;;;;;;;;5026348;28;20205;-68
2023/03/31 10:13:20;;;;;;;16.23;3.63;;;;;;;;;;5026062;28;20211;-68
2023/03/31 10:15:47;;;;;;;12.63;3.63;;;;;;;;;;5021529;28;20235;-68
2023/03/31 10:18:17;;;;;;;14.33;3.83;;;;;;;;;;5023380;28;20203;-69
2023/03/31 10:20:45;;;;;;;11.73;3.47;;;;;;;;;;5029299;28;20211;-69
2023/03/31 10:23:17;;;;;;;12.18;2.90;;;;;;;;;;5023302;28;20204;-69
2023/03/31 10:25:45;;;;;;;11.82;3.30;;;;;;;;;;5020907;28;20212;-68
2023/03/31 10:28:13;;;;;;;13.13;3.35;;;;;;;;;;5026373;28;20240;-69
2023/03/31 10:30:40;;;;;;;12.60;3.38;;;;;;;;;;5022755;28;20231;-68
2023/03/31 10:33:12;;;;;;;10.32;3.15;;;;;;;;;;5020996;28;20208;-69
2023/03/31 10:35:41;;;;;;;10.57;3.30;;;;;;;;;;5023860;28;20200;-68
2023/03/31 10:38:11;;;;;;;11.87;3.20;;;;;;;;;;5026223;28;20204;-68
2023/03/31 10:40:38;;;;;;;13.27;3.72;;;;;;;;;;5019350;28;20212;-70
2023/03/31 10:43:10;;;;;;;12.02;3.40;;;;;;;;;;5021835;28;20226;-69
2023/03/31 10:45:39;;;;;;;15.68;3.45;;;;;;;;;;5020709;28;20204;-68
2023/03/31 10:48:07;;;;;;;13.07;3.47;;;;;;;;;;5022700;28;20223;-70
2023/03/31 10:50:35;;;;;;;12.85;3.58;;;;;;;;;;5019649;28;20215;-68
2023/03/31 10:53:05;;;;;;;16.70;4.30;;;;;;;;;;5020023;28;20197;-68
2023/03/31 10:55:34;;;;;;;13.65;3.38;;;;;;;;;;5024045;28;20255;-68
2023/03/31 10:58:02;;;;;;;9.20;3.08;;;;;;;;;;5023469;28;20211;-69
2023/03/31 11:00:32;;;;;;;12.38;3.13;;;;;;;;;;5022175;28;20208;-70
2023/03/31 11:03:07;;;;;;;13.98;3.53;;;;;;;;;;5026568;28;20209;-68
2023/03/31 11:05:38;;;;;;;10.32;3.25;;;;;;;;;;5023372;28;20210;-68
2023/03/31 11:08:17;;;;;;;10.13;3.33;;;;;;;;;;5022629;28;20231;-68
2023/03/31 11:11:02;;;;;;;12.27;3.00;;;;;;;;;;5021448;28;20265;-68
2023/03/31 11:13:32;;;;;;;12.13;3.10;;;;;;;;;;5018786;28;20206;-68
2023/03/31 11:16:03;;;;;;;9.52;3.38;;;;;;;;;;5016162;28;20211;-68
2023/03/31 11:18:40;;;;;;;15.27;2.65;;;;;;;;;;5025068;28;20204;-68
2023/03/31 11:21:12;;;;;;;10.32;2.85;;;;;;;;;;5020379;28;20215;-68
2023/03/31 11:23:42;;;;;;;11.30;2.67;;;;;;;;;;5027915;28;20216;-68
2023/03/31 11:26:11;;;;;;;10.18;2.85;;;;;;;;;;5019890;28;20216;-67
2023/03/31 11:28:43;;;;;;;9.15;2.83;;;;;;;;;;5022353;28;20221;-68
2023/03/31 11:31:16;;;;;;;7.90;2.42;;;;;;;;;;5017881;28;20196;-68
2023/03/31 11:33:51;;;;;;;8.77;2.90;;;;;;;;;;5020705;28;20212;-68
2023/03/31 11:36:27;;;;;;;9.90;2.58;;;;;;;;;;5020677;28;20208;-68
2023/03/31 11:39:00;;;;;;;8.50;2.30;;;;;;;;;;5024471;28;20211;-68
2023/03/31 11:41:32;;;;;;;5.53;2.20;;;;;;;;;;5024660;28;20208;-68
2023/03/31 11:44:02;;;;;;;6.25;2.10;;;;;;;;;;5022071;28;20204;-68
2023/03/31 11:46:33;;;;;;;6.70;1.98;;;;;;;;;;5022327;28;20216;-69
2023/03/31 11:49:02;;;;;;;7.75;2.05;;;;;;;;;;5020856;28;20220;-69
2023/03/31 11:51:31;;;;;;;9.25;2.20;;;;;;;;;;5022689;28;20207;-67
2023/03/31 11:54:00;;;;;;;7.50;2.15;;;;;;;;;;5015583;28;20204;-67
2023/03/31 11:56:31;;;;;;;11.23;2.42;;;;;;;;;;5018276;28;20203;-67
2023/03/31 11:59:00;;;;;;;8.25;2.95;;;;;;;;;;5023617;28;20239;-67
2023/03/31 12:01:31;;;;;;;6.90;2.10;;;;;;;;;;5021412;28;20196;-66
2023/03/31 12:04:05;;;;;;;6.53;2.42;;;;;;;;;;5021585;28;20196;-67
2023/03/31 12:06:35;;;;;;;7.35;2.63;;;;;;;;;;5028788;28;20208;-67
2023/03/31 12:09:06;;;;;;;8.50;2.20;;;;;;;;;;5022573;28;20212;-67
2023/03/31 12:11:36;;;;;;;5.75;2.60;;;;;;;;;;5019270;28;20204;-67
2023/03/31 12:14:09;;;;;;;9.93;3.40;;;;;;;;;;5024399;28;20210;-67
2023/03/31 12:16:39;;;;;;;6.82;2.50;;;;;;;;;;5020598;28;20216;-66
2023/03/31 12:19:09;;;;;;;8.55;2.30;;;;;;;;;;5019000;28;20200;-66
2023/03/31 12:21:38;;;;;;;7.03;1.98;;;;;;;;;;5018450;28;20212;-66
2023/03/31 12:24:06;;;;;;;7.35;2.10;;;;;;;;;;5020884;28;20196;-67
2023/03/31 12:26:38;;;;;;;6.45;2.03;;;;;;;;;;5018038;28;20236;-66
2023/03/31 12:29:08;;;;;;;6.80;2.20;;;;;;;;;;5019895;28;20255;-68
2023/03/31 12:31:37;;;;;;;5.47;1.75;;;;;;;;;;5018619;28;20199;-68
2023/03/31 12:34:06;;;;;;;7.03;2.40;;;;;;;;;;5016901;28;20205;-67
2023/03/31 12:36:39;;;;;;;6.63;2.40;;;;;;;;;;5018696;28;20204;-68
2023/03/31 12:39:15;;;;;;;6.32;3.28;;;;;;;;;;5021263;28;20196;-67
2023/03/31 12:41:46;;;;;;;8.20;2.80;;;;;;;;;;5021075;28;20258;-68
2023/03/31 12:44:30;;;;;;;5.15;2.05;;;;;;;;;;5022560;28;20216;-67
2023/03/31 12:47:22;;;;;;;7.10;2.78;;;;;;;;;;5022818;28;20263;-68
2023/03/31 12:49:55;;;;;;;9.82;2.80;;;;;;;;;;5020683;28;20228;-68
2023/03/31 12:52:25;;;;;;;6.78;2.25;;;;;;;;;;5018212;28;20200;-68
2023/03/31 12:55:02;;;;;;;7.68;2.15;;;;;;;;;;5021451;28;20206;-67
2023/03/31 12:57:30;;;;;;;6.22;2.40;;;;;;;;;;5020265;28;20204;-67
2023/03/31 13:00:17;;;;;;;6.80;2.20;;;;;;;;;;5020713;28;20201;-67
2023/03/31 13:02:44;;;;;;;8.18;2.10;;;;;;;;;;5018984;28;20204;-67
2023/03/31 13:05:26;;;;;;;8.85;2.55;;;;;;;;;;5020832;28;20205;-68
2023/03/31 13:07:54;;;;;;;6.55;2.20;;;;;;;;;;5010301;28;20210;-66
2023/03/31 13:10:29;;;;;;;6.10;2.08;;;;;;;;;;5016039;28;20228;-68
2023/03/31 13:13:00;;;;;;;7.43;1.92;;;;;;;;;;5025525;28;20195;-66
2023/03/31 13:15:28;;;;;;;7.38;1.98;;;;;;;;;;5021694;28;20204;-68
2023/03/31 13:17:57;;;;;;;5.85;2.03;;;;;;;;;;5019476;28;20209;-67
2023/03/31 13:20:31;;;;;;;5.45;1.95;;;;;;;;;;5018438;28;20215;-67
2023/03/31 13:23:02;;;;;;;6.47;2.28;;;;;;;;;;5020029;28;20205;-67
2023/03/31 13:25:50;;;;;;;7.25;1.90;;;;;;;;;;5018914;28;20204;-68
2023/03/31 13:28:28;;;;;;;6.28;2.00;;;;;;;;;;5020361;28;20239;-67
2023/03/31 13:30:57;;;;;;;4.53;1.80;;;;;;;;;;5015071;28;20252;-67
2023/03/31 13:33:26;;;;;;;4.13;1.58;;;;;;;;;;5017847;28;20215;-67
2023/03/31 13:35:55;;;;;;;3.05;1.40;;;;;;;;;;5019342;28;20211;-68
2023/03/31 13:38:37;;;;;;;3.55;1.25;;;;;;;;;;5015493;28;20205;-68
2023/03/31 13:41:10;;;;;;;2.60;1.17;;;;;;;;;;5024719;28;20208;-67
2023/03/31 13:43:44;;;;;;;3.17;1.35;;;;;;;;;;5017711;28;20205;-67
2023/03/31 13:46:30;;;;;;;6.75;1.73;;;;;;;;;;5020107;28;20214;-67
2023/03/31 13:49:03;;;;;;;4.97;1.90;;;;;;;;;;5023691;28;20203;-67
2023/03/31 13:51:35;;;;;;;5.03;1.75;;;;;;;;;;5021283;28;20248;-67
2023/03/31 13:54:18;;;;;;;7.10;1.85;;;;;;;;;;5025452;28;20208;-68
2023/03/31 13:57:00;;;;;;;5.55;1.70;;;;;;;;;;5018333;28;20201;-67
2023/03/31 13:59:42;;;;;;;6.75;1.85;;;;;;;;;;5000383;28;20300;-68
2023/03/31 14:02:28;;;;;;;6.68;1.83;;;;;;;;;;5021107;28;20243;-66
2023/03/31 14:05:21;;;;;;;5.63;1.80;;;;;;;;;;5014311;28;20205;-67
2023/03/31 14:07:53;;;;;;;8.23;2.10;;;;;;;;;;5023960;28;20204;-67
2023/03/31 14:10:25;;;;;;;7.53;2.45;;;;;;;;;;5027417;28;20224;-68
2023/03/31 14:12:52;;;;;;;4.45;1.90;;;;;;;;;;5023470;28;20205;-67
2023/03/31 14:15:22;;;;;;;6.55;2.25;;;;;;;;;;5020017;28;20197;-68
2023/03/31 14:17:49;;;;;;;6.15;2.05;;;;;;;;;;5022317;28;20204;-67
2023/03/31 14:20:29;;;;;;;7.32;2.40;;;;;;;;;;5018888;28;20262;-67
2023/03/31 14:23:00;;;;;;;8.70;2.65;;;;;;;;;;5021946;28;20200;-67
2023/03/31 14:25:34;;;;;;;7.38;2.10;;;;;;;;;;5024692;28;20204;-68
2023/03/31 14:28:07;;;;;;;5.90;1.92;;;;;;;;;;5023228;28;20231;-66
2023/03/31 14:30:41;;;;;;;7.15;2.08;;;;;;;;;;5022073;28;20235;-67
2023/03/31 14:33:14;;;;;;;6.55;2.25;;;;;;;;;;5025318;28;20215;-67
2023/03/31 14:35:43;;;;;;;6.22;2.15;;;;;;;;;;5027224;28;20235;-67
2023/03/31 14:38:20;;;;;;;5.07;1.90;;;;;;;;;;5020949;28;20210;-68
2023/03/31 14:40:48;;;;;;;6.32;1.90;;;;;;;;;;5024279;28;20208;-67
2023/03/31 14:43:18;;;;;;;6.03;1.85;;;;;;;;;;5023724;28;20200;-68
2023/03/31 14:45:47;;;;;;;5.55;1.65;;;;;;;;;;5027836;28;20211;-68
2023/03/31 14:48:16;;;;;;;4.57;1.50;;;;;;;;;;5021672;28;20212;-68
2023/03/31 14:50:44;;;;;;;4.70;1.75;;;;;;;;;;5026919;28;20220;-67
2023/03/31 14:53:14;;;;;;;4.10;1.75;;;;;;;;;;5018032;28;20223;-68
2023/03/31 14:55:42;;;;;;;3.35;1.40;;;;;;;;;;5022525;28;20209;-68
2023/03/31 14:58:12;;;;;;;3.72;1.58;;;;;;;;;;5020537;28;20303;-67